sensor_id;sensor_type;location;lat;lon;timestamp;P1;durP1;ratioP1;P2;durP2;ratioP2
16975;SDS011;8604;48.148;-1.786;2024-03-02T00:01:16;11.67;;;3.13;;
16975;SDS011;8604;48.148;-1.786;2024-03-02T00:03:44;10.03;;;3.07;;
16975;SDS011;8604;48.148;-1.786;2024-03-02T00:06:13;11.17;;;3.23;;
16975;SDS011;8604;48.148;-1.786;2024-03-02T00:08:42;11.47;;;2.93;;
16975;SDS011;8604;48.148;-1.786;2024-03-02T00:11:11;13.77;;;3.30;;
16975;SDS011;8604;48.148;-1.786;2024-03-02T00:13:42;10.97;;;3.07;;
16975;SDS011;8604;48.148;-1.786;2024-03-02T00:16:11;12.47;;;3.00;;
16975;SDS011;8604;48.148;-1.786;2024-03-02T00:18:39;8.73;;;2.60;;
16975;SDS011;8604;48.148;-1.786;2024-03-02T00:21:10;8.87;;;2.70;;
16975;SDS011;8604;48.148;-1.786;2024-03-02T00:23:40;12.57;;;2.53;;
16975;SDS011;8604;48.148;-1.786;2024-03-02T00:26:08;9.90;;;2.97;;
16975;SDS011;8604;48.148;-1.786;2024-03-02T00:28:40;12.23;;;2.70;;
16975;SDS011;8604;48.148;-1.786;2024-03-02T00:31:12;8.80;;;2.70;;
16975;SDS011;8604;48.148;-1.786;2024-03-02T00:33:41;13.90;;;3.50;;
16975;SDS011;8604;48.148;-1.786;2024-03-02T00:36:11;12.33;;;2.90;;
16975;SDS011;8604;48.148;-1.786;2024-03-02T00:38:42;11.93;;;3.00;;
16975;SDS011;8604;48.148;-1.786;2024-03-02T00:41:15;8.60;;;2.47;;
16975;SDS011;8604;48.148;-1.786;2024-03-02T00:46:34;12.73;;;2.70;;
16975;SDS011;8604;48.148;-1.786;2024-03-02T00:49:04;10.07;;;2.77;;
16975;SDS011;8604;48.148;-1.786;2024-03-02T00:51:34;11.77;;;2.77;;
16975;SDS011;8604;48.148;-1.786;2024-03-02T00:54:03;10.90;;;2.90;;
16975;SDS011;8604;48.148;-1.786;2024-03-02T00:56:32;8.90;;;2.60;;
16975;SDS011;8604;48.148;-1.786;2024-03-02T00:59:02;13.50;;;3.20;;
16975;SDS011;8604;48.148;-1.786;2024-03-02T01:01:30;17.17;;;2.93;;
16975;SDS011;8604;48.148;-1.786;2024-03-02T01:04:00;11.33;;;2.80;;
16975;SDS011;8604;48.148;-1.786;2024-03-02T01:06:29;8.93;;;2.60;;
16975;SDS011;8604;48.148;-1.786;2024-03-02T01:08:58;12.83;;;2.77;;
16975;SDS011;8604;48.148;-1.786;2024-03-02T01:11:27;11.43;;;2.50;;
16975;SDS011;8604;48.148;-1.786;2024-03-02T01:13:56;10.47;;;2.80;;
16975;SDS011;8604;48.148;-1.786;2024-03-02T01:16:25;15.20;;;2.90;;
16975;SDS011;8604;48.148;-1.786;2024-03-02T01:18:53;10.17;;;3.20;;
16975;SDS011;8604;48.148;-1.786;2024-03-02T01:21:23;14.87;;;3.40;;
16975;SDS011;8604;48.148;-1.786;2024-03-02T01:23:52;11.30;;;3.10;;
16975;SDS011;8604;48.148;-1.786;2024-03-02T01:26:20;15.67;;;2.77;;
16975;SDS011;8604;48.148;-1.786;2024-03-02T01:28:49;13.07;;;2.93;;
16975;SDS011;8604;48.148;-1.786;2024-03-02T01:31:17;12.87;;;2.60;;
16975;SDS011;8604;48.148;-1.786;2024-03-02T01:33:46;12.43;;;2.77;;
16975;SDS011;8604;48.148;-1.786;2024-03-02T01:36:14;14.27;;;2.60;;
16975;SDS011;8604;48.148;-1.786;2024-03-02T01:38:44;11.77;;;2.67;;
16975;SDS011;8604;48.148;-1.786;2024-03-02T01:41:12;9.47;;;2.50;;
16975;SDS011;8604;48.148;-1.786;2024-03-02T01:43:41;12.27;;;2.70;;
16975;SDS011;8604;48.148;-1.786;2024-03-02T01:46:10;8.60;;;2.60;;
16975;SDS011;8604;48.148;-1.786;2024-03-02T01:48:39;11.67;;;2.67;;
16975;SDS011;8604;48.148;-1.786;2024-03-02T01:51:07;8.63;;;2.33;;
16975;SDS011;8604;48.148;-1.786;2024-03-02T01:53:37;11.43;;;2.77;;
16975;SDS011;8604;48.148;-1.786;2024-03-02T01:56:07;7.83;;;2.10;;
16975;SDS011;8604;48.148;-1.786;2024-03-02T01:58:36;5.73;;;2.00;;
16975;SDS011;8604;48.148;-1.786;2024-03-02T02:01:04;7.70;;;2.10;;
16975;SDS011;8604;48.148;-1.786;2024-03-02T02:03:33;9.73;;;2.13;;
16975;SDS011;8604;48.148;-1.786;2024-03-02T02:06:02;13.73;;;2.00;;
16975;SDS011;8604;48.148;-1.786;2024-03-02T02:08:31;7.03;;;1.90;;
16975;SDS011;8604;48.148;-1.786;2024-03-02T02:10:59;8.70;;;2.33;;
16975;SDS011;8604;48.148;-1.786;2024-03-02T02:13:29;6.50;;;1.97;;
16975;SDS011;8604;48.148;-1.786;2024-03-02T02:16:03;10.53;;;2.27;;
16975;SDS011;8604;48.148;-1.786;2024-03-02T02:18:33;6.53;;;2.37;;
16975;SDS011;8604;48.148;-1.786;2024-03-02T02:21:02;8.70;;;2.20;;
16975;SDS011;8604;48.148;-1.786;2024-03-02T02:23:32;7.70;;;2.20;;
16975;SDS011;8604;48.148;-1.786;2024-03-02T02:26:01;9.47;;;2.57;;
16975;SDS011;8604;48.148;-1.786;2024-03-02T02:28:30;9.73;;;2.30;;
16975;SDS011;8604;48.148;-1.786;2024-03-02T02:30:59;12.83;;;2.40;;
16975;SDS011;8604;48.148;-1.786;2024-03-02T02:33:28;9.83;;;2.30;;
16975;SDS011;8604;48.148;-1.786;2024-03-02T02:35:56;8.50;;;2.40;;
16975;SDS011;8604;48.148;-1.786;2024-03-02T02:38:25;10.00;;;2.10;;
16975;SDS011;8604;48.148;-1.786;2024-03-02T02:40:55;9.13;;;2.43;;
16975;SDS011;8604;48.148;-1.786;2024-03-02T02:43:23;7.20;;;2.20;;
16975;SDS011;8604;48.148;-1.786;2024-03-02T02:45:51;8.63;;;2.80;;
16975;SDS011;8604;48.148;-1.786;2024-03-02T02:48:20;11.67;;;2.60;;
16975;SDS011;8604;48.148;-1.786;2024-03-02T02:50:49;7.83;;;2.33;;
16975;SDS011;8604;48.148;-1.786;2024-03-02T02:53:17;11.47;;;2.70;;
16975;SDS011;8604;48.148;-1.786;2024-03-02T02:55:46;11.27;;;2.30;;
16975;SDS011;8604;48.148;-1.786;2024-03-02T02:58:16;11.03;;;2.80;;
16975;SDS011;8604;48.148;-1.786;2024-03-02T03:00:44;13.57;;;2.43;;
16975;SDS011;8604;48.148;-1.786;2024-03-02T03:03:13;9.50;;;2.70;;
16975;SDS011;8604;48.148;-1.786;2024-03-02T03:05:41;11.93;;;2.33;;
16975;SDS011;8604;48.148;-1.786;2024-03-02T03:08:10;7.97;;;2.10;;
16975;SDS011;8604;48.148;-1.786;2024-03-02T03:10:38;11.23;;;2.43;;
16975;SDS011;8604;48.148;-1.786;2024-03-02T03:13:07;8.60;;;2.20;;
16975;SDS011;8604;48.148;-1.786;2024-03-02T03:15:37;11.23;;;2.10;;
16975;SDS011;8604;48.148;-1.786;2024-03-02T03:18:05;13.33;;;2.70;;
16975;SDS011;8604;48.148;-1.786;2024-03-02T03:20:37;11.10;;;2.27;;
16975;SDS011;8604;48.148;-1.786;2024-03-02T03:23:06;11.30;;;2.50;;
16975;SDS011;8604;48.148;-1.786;2024-03-02T03:25:35;8.97;;;2.37;;
16975;SDS011;8604;48.148;-1.786;2024-03-02T03:28:03;13.57;;;2.60;;
16975;SDS011;8604;48.148;-1.786;2024-03-02T03:30:32;8.87;;;2.20;;
16975;SDS011;8604;48.148;-1.786;2024-03-02T03:33:02;12.67;;;2.70;;
16975;SDS011;8604;48.148;-1.786;2024-03-02T03:35:32;9.83;;;2.40;;
16975;SDS011;8604;48.148;-1.786;2024-03-02T03:38:01;7.40;;;2.20;;
16975;SDS011;8604;48.148;-1.786;2024-03-02T03:40:30;9.37;;;2.53;;
16975;SDS011;8604;48.148;-1.786;2024-03-02T03:42:58;11.67;;;2.60;;
16975;SDS011;8604;48.148;-1.786;2024-03-02T03:45:27;8.93;;;2.30;;
16975;SDS011;8604;48.148;-1.786;2024-03-02T03:48:12;9.93;;;2.00;;
16975;SDS011;8604;48.148;-1.786;2024-03-02T03:50:41;8.67;;;1.97;;
16975;SDS011;8604;48.148;-1.786;2024-03-02T03:53:09;6.10;;;2.03;;
16975;SDS011;8604;48.148;-1.786;2024-03-02T03:55:38;6.13;;;1.90;;
16975;SDS011;8604;48.148;-1.786;2024-03-02T03:58:06;6.27;;;1.87;;
16975;SDS011;8604;48.148;-1.786;2024-03-02T04:00:34;4.60;;;1.90;;
16975;SDS011;8604;48.148;-1.786;2024-03-02T04:03:03;8.87;;;2.10;;
16975;SDS011;8604;48.148;-1.786;2024-03-02T04:05:33;8.70;;;1.93;;
16975;SDS011;8604;48.148;-1.786;2024-03-02T04:08:02;7.80;;;2.10;;
16975;SDS011;8604;48.148;-1.786;2024-03-02T04:10:31;6.07;;;2.00;;
16975;SDS011;8604;48.148;-1.786;2024-03-02T04:13:00;6.67;;;2.07;;
16975;SDS011;8604;48.148;-1.786;2024-03-02T04:15:29;6.83;;;2.13;;
16975;SDS011;8604;48.148;-1.786;2024-03-02T04:17:57;8.93;;;2.30;;
16975;SDS011;8604;48.148;-1.786;2024-03-02T04:20:26;7.23;;;1.90;;
16975;SDS011;8604;48.148;-1.786;2024-03-02T04:22:56;7.60;;;2.27;;
16975;SDS011;8604;48.148;-1.786;2024-03-02T04:25:24;4.87;;;1.70;;
16975;SDS011;8604;48.148;-1.786;2024-03-02T04:27:53;9.20;;;2.13;;
16975;SDS011;8604;48.148;-1.786;2024-03-02T04:30:21;5.97;;;2.03;;
16975;SDS011;8604;48.148;-1.786;2024-03-02T04:32:50;4.33;;;1.90;;
16975;SDS011;8604;48.148;-1.786;2024-03-02T04:35:19;2.97;;;1.83;;
16975;SDS011;8604;48.148;-1.786;2024-03-02T04:37:47;6.30;;;1.77;;
16975;SDS011;8604;48.148;-1.786;2024-03-02T04:40:17;4.70;;;1.90;;
16975;SDS011;8604;48.148;-1.786;2024-03-02T04:42:46;5.57;;;1.83;;
16975;SDS011;8604;48.148;-1.786;2024-03-02T04:45:14;7.47;;;1.70;;
16975;SDS011;8604;48.148;-1.786;2024-03-02T04:47:43;7.27;;;1.80;;
16975;SDS011;8604;48.148;-1.786;2024-03-02T04:50:15;6.83;;;1.70;;
16975;SDS011;8604;48.148;-1.786;2024-03-02T04:52:44;5.23;;;1.60;;
16975;SDS011;8604;48.148;-1.786;2024-03-02T04:55:12;5.17;;;1.60;;
16975;SDS011;8604;48.148;-1.786;2024-03-02T04:58:18;7.20;;;1.77;;
16975;SDS011;8604;48.148;-1.786;2024-03-02T05:00:47;7.37;;;2.17;;
16975;SDS011;8604;48.148;-1.786;2024-03-02T05:03:15;7.97;;;2.00;;
16975;SDS011;8604;48.148;-1.786;2024-03-02T05:05:44;6.83;;;1.80;;
16975;SDS011;8604;48.148;-1.786;2024-03-02T05:08:13;6.50;;;2.07;;
16975;SDS011;8604;48.148;-1.786;2024-03-02T05:10:43;9.03;;;2.10;;
16975;SDS011;8604;48.148;-1.786;2024-03-02T05:13:12;9.40;;;2.20;;
16975;SDS011;8604;48.148;-1.786;2024-03-02T05:15:41;9.37;;;2.20;;
16975;SDS011;8604;48.148;-1.786;2024-03-02T05:18:10;6.63;;;2.20;;
16975;SDS011;8604;48.148;-1.786;2024-03-02T05:20:38;7.80;;;2.07;;
16975;SDS011;8604;48.148;-1.786;2024-03-02T05:23:07;6.47;;;1.90;;
16975;SDS011;8604;48.148;-1.786;2024-03-02T05:25:35;6.10;;;2.00;;
16975;SDS011;8604;48.148;-1.786;2024-03-02T05:28:04;7.70;;;1.80;;
16975;SDS011;8604;48.148;-1.786;2024-03-02T05:30:33;6.97;;;1.70;;
16975;SDS011;8604;48.148;-1.786;2024-03-02T05:33:04;6.40;;;1.77;;
16975;SDS011;8604;48.148;-1.786;2024-03-02T05:35:32;7.53;;;2.03;;
16975;SDS011;8604;48.148;-1.786;2024-03-02T05:38:01;3.67;;;1.70;;
16975;SDS011;8604;48.148;-1.786;2024-03-02T05:40:29;6.67;;;1.87;;
16975;SDS011;8604;48.148;-1.786;2024-03-02T05:42:58;9.03;;;1.97;;
16975;SDS011;8604;48.148;-1.786;2024-03-02T05:45:26;6.33;;;2.00;;
16975;SDS011;8604;48.148;-1.786;2024-03-02T05:47:55;5.63;;;1.90;;
16975;SDS011;8604;48.148;-1.786;2024-03-02T05:50:25;5.73;;;1.87;;
16975;SDS011;8604;48.148;-1.786;2024-03-02T05:52:53;6.43;;;2.17;;
16975;SDS011;8604;48.148;-1.786;2024-03-02T05:55:23;4.77;;;1.67;;
16975;SDS011;8604;48.148;-1.786;2024-03-02T05:57:51;4.00;;;1.77;;
16975;SDS011;8604;48.148;-1.786;2024-03-02T06:00:38;6.23;;;1.77;;
16975;SDS011;8604;48.148;-1.786;2024-03-02T06:03:06;3.57;;;1.50;;
16975;SDS011;8604;48.148;-1.786;2024-03-02T06:05:37;9.20;;;2.10;;
16975;SDS011;8604;48.148;-1.786;2024-03-02T06:08:07;7.37;;;2.23;;
16975;SDS011;8604;48.148;-1.786;2024-03-02T06:10:35;4.70;;;1.83;;
16975;SDS011;8604;48.148;-1.786;2024-03-02T06:13:04;4.87;;;1.73;;
16975;SDS011;8604;48.148;-1.786;2024-03-02T06:15:32;3.73;;;1.60;;
16975;SDS011;8604;48.148;-1.786;2024-03-02T06:18:03;4.40;;;1.70;;
16975;SDS011;8604;48.148;-1.786;2024-03-02T06:20:33;5.20;;;1.60;;
16975;SDS011;8604;48.148;-1.786;2024-03-02T06:23:04;6.77;;;2.40;;
16975;SDS011;8604;48.148;-1.786;2024-03-02T06:25:33;4.70;;;1.83;;
16975;SDS011;8604;48.148;-1.786;2024-03-02T06:28:02;9.43;;;2.00;;
16975;SDS011;8604;48.148;-1.786;2024-03-02T06:30:31;8.20;;;1.97;;
16975;SDS011;8604;48.148;-1.786;2024-03-02T06:32:59;8.50;;;2.10;;
16975;SDS011;8604;48.148;-1.786;2024-03-02T06:35:28;7.03;;;2.00;;
16975;SDS011;8604;48.148;-1.786;2024-03-02T06:37:57;7.97;;;2.40;;
16975;SDS011;8604;48.148;-1.786;2024-03-02T06:40:27;5.23;;;1.73;;
16975;SDS011;8604;48.148;-1.786;2024-03-02T06:42:56;6.60;;;1.90;;
16975;SDS011;8604;48.148;-1.786;2024-03-02T06:45:25;8.37;;;2.50;;
16975;SDS011;8604;48.148;-1.786;2024-03-02T06:48:32;10.93;;;2.10;;
16975;SDS011;8604;48.148;-1.786;2024-03-02T06:51:26;6.77;;;2.20;;
16975;SDS011;8604;48.148;-1.786;2024-03-02T06:54:18;9.57;;;2.50;;
16975;SDS011;8604;48.148;-1.786;2024-03-02T06:57:12;8.43;;;2.07;;
16975;SDS011;8604;48.148;-1.786;2024-03-02T06:59:48;6.60;;;2.20;;
16975;SDS011;8604;48.148;-1.786;2024-03-02T07:02:28;7.57;;;2.10;;
16975;SDS011;8604;48.148;-1.786;2024-03-02T07:08:17;7.97;;;2.33;;
16975;SDS011;8604;48.148;-1.786;2024-03-02T07:11:20;6.37;;;2.13;;
16975;SDS011;8604;48.148;-1.786;2024-03-02T07:14:16;11.07;;;2.07;;
16975;SDS011;8604;48.148;-1.786;2024-03-02T07:17:16;6.70;;;2.10;;
16975;SDS011;8604;48.148;-1.786;2024-03-02T07:20:08;6.03;;;2.10;;
16975;SDS011;8604;48.148;-1.786;2024-03-02T07:22:56;9.00;;;2.10;;
16975;SDS011;8604;48.148;-1.786;2024-03-02T07:25:37;7.23;;;2.00;;
16975;SDS011;8604;48.148;-1.786;2024-03-02T07:28:27;7.47;;;2.00;;
16975;SDS011;8604;48.148;-1.786;2024-03-02T07:31:10;6.97;;;1.87;;
16975;SDS011;8604;48.148;-1.786;2024-03-02T07:33:52;7.47;;;2.00;;
16975;SDS011;8604;48.148;-1.786;2024-03-02T07:39:37;9.83;;;2.07;;
16975;SDS011;8604;48.148;-1.786;2024-03-02T07:42:37;11.67;;;2.53;;
16975;SDS011;8604;48.148;-1.786;2024-03-02T07:45:35;10.00;;;2.70;;
16975;SDS011;8604;48.148;-1.786;2024-03-02T07:48:27;10.37;;;2.67;;
16975;SDS011;8604;48.148;-1.786;2024-03-02T07:51:00;7.80;;;2.20;;
16975;SDS011;8604;48.148;-1.786;2024-03-02T07:53:29;11.20;;;2.40;;
16975;SDS011;8604;48.148;-1.786;2024-03-02T07:55:58;11.80;;;2.37;;
16975;SDS011;8604;48.148;-1.786;2024-03-02T07:58:29;8.57;;;2.83;;
16975;SDS011;8604;48.148;-1.786;2024-03-02T08:01:00;11.73;;;2.57;;
16975;SDS011;8604;48.148;-1.786;2024-03-02T08:03:31;11.60;;;2.63;;
16975;SDS011;8604;48.148;-1.786;2024-03-02T08:06:03;9.37;;;2.90;;
16975;SDS011;8604;48.148;-1.786;2024-03-02T08:08:32;11.33;;;2.93;;
16975;SDS011;8604;48.148;-1.786;2024-03-02T08:11:01;14.27;;;3.10;;
16975;SDS011;8604;48.148;-1.786;2024-03-02T08:13:30;8.87;;;2.30;;
16975;SDS011;8604;48.148;-1.786;2024-03-02T08:15:57;9.60;;;2.40;;
16975;SDS011;8604;48.148;-1.786;2024-03-02T08:18:26;10.73;;;2.53;;
16975;SDS011;8604;48.148;-1.786;2024-03-02T08:20:56;12.50;;;3.17;;
16975;SDS011;8604;48.148;-1.786;2024-03-02T08:23:27;11.60;;;2.87;;
16975;SDS011;8604;48.148;-1.786;2024-03-02T08:25:57;9.07;;;2.60;;
16975;SDS011;8604;48.148;-1.786;2024-03-02T08:28:26;9.27;;;2.70;;
16975;SDS011;8604;48.148;-1.786;2024-03-02T08:30:55;9.10;;;2.80;;
16975;SDS011;8604;48.148;-1.786;2024-03-02T08:33:24;9.70;;;2.20;;
16975;SDS011;8604;48.148;-1.786;2024-03-02T08:35:53;10.30;;;2.67;;
16975;SDS011;8604;48.148;-1.786;2024-03-02T08:38:22;9.60;;;2.60;;
16975;SDS011;8604;48.148;-1.786;2024-03-02T08:40:51;7.03;;;2.03;;
16975;SDS011;8604;48.148;-1.786;2024-03-02T08:43:22;7.47;;;1.80;;
16975;SDS011;8604;48.148;-1.786;2024-03-02T08:45:52;7.13;;;1.90;;
16975;SDS011;8604;48.148;-1.786;2024-03-02T08:48:26;8.20;;;2.47;;
16975;SDS011;8604;48.148;-1.786;2024-03-02T08:50:55;8.07;;;2.70;;
16975;SDS011;8604;48.148;-1.786;2024-03-02T08:53:25;8.53;;;3.17;;
16975;SDS011;8604;48.148;-1.786;2024-03-02T08:55:53;8.67;;;1.97;;
16975;SDS011;8604;48.148;-1.786;2024-03-02T08:58:25;5.37;;;1.80;;
16975;SDS011;8604;48.148;-1.786;2024-03-02T09:00:53;9.20;;;2.40;;
16975;SDS011;8604;48.148;-1.786;2024-03-02T09:03:22;9.57;;;3.03;;
16975;SDS011;8604;48.148;-1.786;2024-03-02T09:05:51;10.20;;;2.30;;
16975;SDS011;8604;48.148;-1.786;2024-03-02T09:08:20;8.57;;;2.60;;
16975;SDS011;8604;48.148;-1.786;2024-03-02T09:10:50;6.50;;;2.27;;
16975;SDS011;8604;48.148;-1.786;2024-03-02T09:13:18;7.03;;;2.17;;
16975;SDS011;8604;48.148;-1.786;2024-03-02T09:15:47;6.03;;;1.90;;
16975;SDS011;8604;48.148;-1.786;2024-03-02T09:18:16;5.57;;;1.90;;
16975;SDS011;8604;48.148;-1.786;2024-03-02T09:20:45;7.73;;;2.10;;
16975;SDS011;8604;48.148;-1.786;2024-03-02T09:23:16;8.47;;;2.20;;
16975;SDS011;8604;48.148;-1.786;2024-03-02T09:25:49;5.73;;;1.73;;
16975;SDS011;8604;48.148;-1.786;2024-03-02T09:28:19;6.43;;;2.00;;
16975;SDS011;8604;48.148;-1.786;2024-03-02T09:30:48;7.53;;;2.00;;
16975;SDS011;8604;48.148;-1.786;2024-03-02T09:33:16;8.60;;;2.10;;
16975;SDS011;8604;48.148;-1.786;2024-03-02T09:35:45;7.23;;;2.10;;
16975;SDS011;8604;48.148;-1.786;2024-03-02T09:38:15;7.53;;;2.00;;
16975;SDS011;8604;48.148;-1.786;2024-03-02T09:40:44;5.87;;;1.87;;
16975;SDS011;8604;48.148;-1.786;2024-03-02T09:43:17;8.00;;;2.00;;
16975;SDS011;8604;48.148;-1.786;2024-03-02T09:45:46;5.37;;;2.00;;
16975;SDS011;8604;48.148;-1.786;2024-03-02T09:48:36;5.20;;;1.90;;
16975;SDS011;8604;48.148;-1.786;2024-03-02T09:51:06;5.33;;;1.83;;
16975;SDS011;8604;48.148;-1.786;2024-03-02T09:53:36;5.73;;;1.80;;
16975;SDS011;8604;48.148;-1.786;2024-03-02T10:12:04;4.03;;;1.70;;
16975;SDS011;8604;48.148;-1.786;2024-03-02T10:14:34;5.00;;;1.70;;
16975;SDS011;8604;48.148;-1.786;2024-03-02T10:17:03;4.93;;;1.70;;
16975;SDS011;8604;48.148;-1.786;2024-03-02T10:19:34;5.63;;;1.77;;
16975;SDS011;8604;48.148;-1.786;2024-03-02T10:22:07;6.07;;;1.70;;
16975;SDS011;8604;48.148;-1.786;2024-03-02T10:24:37;6.20;;;1.83;;
16975;SDS011;8604;48.148;-1.786;2024-03-02T10:27:08;7.80;;;1.80;;
16975;SDS011;8604;48.148;-1.786;2024-03-02T10:29:38;7.53;;;2.03;;
16975;SDS011;8604;48.148;-1.786;2024-03-02T10:32:11;5.77;;;1.83;;
16975;SDS011;8604;48.148;-1.786;2024-03-02T10:34:40;8.13;;;1.90;;
16975;SDS011;8604;48.148;-1.786;2024-03-02T10:37:10;6.17;;;1.80;;
16975;SDS011;8604;48.148;-1.786;2024-03-02T10:39:40;6.10;;;1.80;;
16975;SDS011;8604;48.148;-1.786;2024-03-02T10:42:10;5.63;;;1.70;;
16975;SDS011;8604;48.148;-1.786;2024-03-02T10:44:39;7.23;;;1.87;;
16975;SDS011;8604;48.148;-1.786;2024-03-02T10:47:10;5.93;;;1.83;;
16975;SDS011;8604;48.148;-1.786;2024-03-02T10:49:41;6.20;;;1.77;;
16975;SDS011;8604;48.148;-1.786;2024-03-02T10:52:11;6.07;;;1.90;;
16975;SDS011;8604;48.148;-1.786;2024-03-02T10:54:41;5.60;;;1.67;;
16975;SDS011;8604;48.148;-1.786;2024-03-02T10:57:12;6.07;;;1.80;;
16975;SDS011;8604;48.148;-1.786;2024-03-02T10:59:46;7.30;;;1.80;;
16975;SDS011;8604;48.148;-1.786;2024-03-02T11:02:20;5.57;;;1.50;;
16975;SDS011;8604;48.148;-1.786;2024-03-02T11:04:50;5.43;;;1.70;;
16975;SDS011;8604;48.148;-1.786;2024-03-02T11:07:23;5.43;;;1.70;;
16975;SDS011;8604;48.148;-1.786;2024-03-02T11:09:54;5.67;;;1.63;;
16975;SDS011;8604;48.148;-1.786;2024-03-02T11:12:28;6.80;;;2.00;;
16975;SDS011;8604;48.148;-1.786;2024-03-02T11:14:58;6.17;;;1.73;;
16975;SDS011;8604;48.148;-1.786;2024-03-02T11:17:29;7.90;;;3.07;;
16975;SDS011;8604;48.148;-1.786;2024-03-02T11:19:58;6.03;;;1.87;;
16975;SDS011;8604;48.148;-1.786;2024-03-02T11:22:28;6.70;;;1.70;;
16975;SDS011;8604;48.148;-1.786;2024-03-02T11:24:57;7.67;;;2.40;;
16975;SDS011;8604;48.148;-1.786;2024-03-02T11:30:49;5.40;;;1.80;;
16975;SDS011;8604;48.148;-1.786;2024-03-02T11:33:24;6.93;;;2.00;;
16975;SDS011;8604;48.148;-1.786;2024-03-02T11:35:56;7.03;;;2.20;;
16975;SDS011;8604;48.148;-1.786;2024-03-02T11:38:28;6.53;;;2.20;;
16975;SDS011;8604;48.148;-1.786;2024-03-02T11:43:46;5.90;;;2.10;;
16975;SDS011;8604;48.148;-1.786;2024-03-02T11:56:06;5.43;;;1.77;;
16975;SDS011;8604;48.148;-1.786;2024-03-02T11:58:39;8.50;;;2.10;;
16975;SDS011;8604;48.148;-1.786;2024-03-02T12:01:28;7.27;;;1.97;;
16975;SDS011;8604;48.148;-1.786;2024-03-02T12:04:00;6.33;;;1.60;;
16975;SDS011;8604;48.148;-1.786;2024-03-02T12:09:59;6.57;;;1.73;;
16975;SDS011;8604;48.148;-1.786;2024-03-02T12:12:35;5.90;;;1.70;;
16975;SDS011;8604;48.148;-1.786;2024-03-02T12:15:05;6.00;;;1.90;;
16975;SDS011;8604;48.148;-1.786;2024-03-02T12:17:35;5.27;;;1.70;;
16975;SDS011;8604;48.148;-1.786;2024-03-02T12:20:08;7.00;;;1.80;;
16975;SDS011;8604;48.148;-1.786;2024-03-02T12:22:40;10.53;;;2.13;;
16975;SDS011;8604;48.148;-1.786;2024-03-02T12:25:09;4.70;;;1.80;;
16975;SDS011;8604;48.148;-1.786;2024-03-02T12:27:38;5.80;;;1.73;;
16975;SDS011;8604;48.148;-1.786;2024-03-02T12:30:08;5.50;;;1.70;;
16975;SDS011;8604;48.148;-1.786;2024-03-02T12:32:40;6.30;;;1.73;;
16975;SDS011;8604;48.148;-1.786;2024-03-02T12:35:10;7.50;;;1.77;;
16975;SDS011;8604;48.148;-1.786;2024-03-02T12:37:44;7.17;;;1.87;;
16975;SDS011;8604;48.148;-1.786;2024-03-02T12:40:13;5.10;;;1.53;;
16975;SDS011;8604;48.148;-1.786;2024-03-02T12:42:44;7.10;;;1.60;;
16975;SDS011;8604;48.148;-1.786;2024-03-02T12:45:13;5.67;;;1.40;;
16975;SDS011;8604;48.148;-1.786;2024-03-02T12:47:52;5.43;;;1.60;;
16975;SDS011;8604;48.148;-1.786;2024-03-02T12:50:21;5.57;;;1.53;;
16975;SDS011;8604;48.148;-1.786;2024-03-02T12:52:53;6.63;;;1.80;;
16975;SDS011;8604;48.148;-1.786;2024-03-02T12:55:23;6.73;;;1.80;;
16975;SDS011;8604;48.148;-1.786;2024-03-02T12:57:52;5.63;;;1.40;;
16975;SDS011;8604;48.148;-1.786;2024-03-02T13:00:21;4.37;;;1.57;;
16975;SDS011;8604;48.148;-1.786;2024-03-02T13:02:50;7.00;;;1.70;;
16975;SDS011;8604;48.148;-1.786;2024-03-02T13:05:20;5.10;;;1.63;;
16975;SDS011;8604;48.148;-1.786;2024-03-02T13:07:50;4.00;;;1.53;;
16975;SDS011;8604;48.148;-1.786;2024-03-02T13:10:18;4.47;;;1.50;;
16975;SDS011;8604;48.148;-1.786;2024-03-02T13:12:47;5.40;;;1.57;;
16975;SDS011;8604;48.148;-1.786;2024-03-02T13:15:15;3.33;;;1.13;;
16975;SDS011;8604;48.148;-1.786;2024-03-02T13:17:44;3.20;;;1.20;;
16975;SDS011;8604;48.148;-1.786;2024-03-02T13:20:13;4.90;;;1.70;;
16975;SDS011;8604;48.148;-1.786;2024-03-02T13:22:46;4.00;;;1.40;;
16975;SDS011;8604;48.148;-1.786;2024-03-02T13:25:14;3.10;;;1.30;;
16975;SDS011;8604;48.148;-1.786;2024-03-02T13:27:43;7.70;;;1.60;;
16975;SDS011;8604;48.148;-1.786;2024-03-02T13:30:12;5.97;;;1.80;;
16975;SDS011;8604;48.148;-1.786;2024-03-02T13:32:41;3.20;;;1.30;;
16975;SDS011;8604;48.148;-1.786;2024-03-02T13:35:14;5.17;;;1.60;;
16975;SDS011;8604;48.148;-1.786;2024-03-02T13:37:43;6.10;;;1.40;;
16975;SDS011;8604;48.148;-1.786;2024-03-02T13:40:13;3.17;;;1.23;;
16975;SDS011;8604;48.148;-1.786;2024-03-02T13:42:46;3.77;;;1.20;;
16975;SDS011;8604;48.148;-1.786;2024-03-02T13:45:15;4.30;;;1.33;;
16975;SDS011;8604;48.148;-1.786;2024-03-02T13:47:45;3.90;;;1.13;;
16975;SDS011;8604;48.148;-1.786;2024-03-02T13:50:13;2.23;;;1.00;;
16975;SDS011;8604;48.148;-1.786;2024-03-02T13:52:42;3.10;;;1.17;;
16975;SDS011;8604;48.148;-1.786;2024-03-02T13:55:12;4.37;;;1.40;;
16975;SDS011;8604;48.148;-1.786;2024-03-02T13:57:41;2.50;;;1.27;;
16975;SDS011;8604;48.148;-1.786;2024-03-02T14:00:10;3.73;;;1.03;;
16975;SDS011;8604;48.148;-1.786;2024-03-02T14:02:40;3.47;;;1.07;;
16975;SDS011;8604;48.148;-1.786;2024-03-02T14:05:09;2.30;;;1.20;;
16975;SDS011;8604;48.148;-1.786;2024-03-02T14:07:38;1.53;;;0.80;;
16975;SDS011;8604;48.148;-1.786;2024-03-02T14:10:07;3.30;;;1.10;;
16975;SDS011;8604;48.148;-1.786;2024-03-02T14:12:38;3.13;;;1.07;;
16975;SDS011;8604;48.148;-1.786;2024-03-02T14:15:07;4.67;;;1.00;;
16975;SDS011;8604;48.148;-1.786;2024-03-02T14:20:40;2.00;;;1.00;;
16975;SDS011;8604;48.148;-1.786;2024-03-02T14:23:10;2.00;;;0.80;;
16975;SDS011;8604;48.148;-1.786;2024-03-02T14:25:38;2.80;;;1.30;;
16975;SDS011;8604;48.148;-1.786;2024-03-02T14:28:08;3.53;;;1.20;;
16975;SDS011;8604;48.148;-1.786;2024-03-02T14:30:57;3.27;;;1.00;;
16975;SDS011;8604;48.148;-1.786;2024-03-02T14:33:27;2.10;;;0.90;;
16975;SDS011;8604;48.148;-1.786;2024-03-02T14:35:56;2.87;;;1.00;;
16975;SDS011;8604;48.148;-1.786;2024-03-02T14:38:24;3.10;;;1.50;;
16975;SDS011;8604;48.148;-1.786;2024-03-02T14:40:53;3.17;;;1.40;;
16975;SDS011;8604;48.148;-1.786;2024-03-02T14:43:23;3.93;;;1.50;;
16975;SDS011;8604;48.148;-1.786;2024-03-02T14:45:51;3.27;;;1.20;;
16975;SDS011;8604;48.148;-1.786;2024-03-02T14:48:20;3.10;;;1.10;;
16975;SDS011;8604;48.148;-1.786;2024-03-02T14:50:49;4.73;;;1.77;;
16975;SDS011;8604;48.148;-1.786;2024-03-02T14:53:17;3.97;;;2.17;;
16975;SDS011;8604;48.148;-1.786;2024-03-02T14:55:46;5.53;;;2.17;;
16975;SDS011;8604;48.148;-1.786;2024-03-02T14:58:14;5.77;;;2.40;;
16975;SDS011;8604;48.148;-1.786;2024-03-02T15:00:44;4.10;;;1.60;;
16975;SDS011;8604;48.148;-1.786;2024-03-02T15:03:13;3.53;;;1.30;;
16975;SDS011;8604;48.148;-1.786;2024-03-02T15:05:42;2.10;;;0.90;;
16975;SDS011;8604;48.148;-1.786;2024-03-02T15:08:13;4.40;;;1.00;;
16975;SDS011;8604;48.148;-1.786;2024-03-02T15:10:43;2.73;;;0.80;;
16975;SDS011;8604;48.148;-1.786;2024-03-02T15:13:11;1.63;;;0.83;;
16975;SDS011;8604;48.148;-1.786;2024-03-02T15:15:40;3.20;;;1.30;;
16975;SDS011;8604;48.148;-1.786;2024-03-02T15:18:11;3.23;;;1.27;;
16975;SDS011;8604;48.148;-1.786;2024-03-02T15:20:40;4.57;;;1.17;;
16975;SDS011;8604;48.148;-1.786;2024-03-02T15:23:11;3.50;;;1.20;;
16975;SDS011;8604;48.148;-1.786;2024-03-02T15:25:40;3.47;;;0.80;;
16975;SDS011;8604;48.148;-1.786;2024-03-02T15:28:09;2.30;;;1.00;;
16975;SDS011;8604;48.148;-1.786;2024-03-02T15:30:38;2.50;;;0.87;;
16975;SDS011;8604;48.148;-1.786;2024-03-02T15:33:07;1.77;;;1.00;;
16975;SDS011;8604;48.148;-1.786;2024-03-02T15:35:37;5.17;;;1.30;;
16975;SDS011;8604;48.148;-1.786;2024-03-02T15:38:11;3.33;;;1.20;;
16975;SDS011;8604;48.148;-1.786;2024-03-02T15:40:57;3.17;;;1.10;;
16975;SDS011;8604;48.148;-1.786;2024-03-02T15:43:26;2.80;;;0.77;;
16975;SDS011;8604;48.148;-1.786;2024-03-02T15:45:56;3.10;;;1.00;;
16975;SDS011;8604;48.148;-1.786;2024-03-02T15:48:25;2.70;;;0.90;;
16975;SDS011;8604;48.148;-1.786;2024-03-02T15:50:56;3.30;;;1.00;;
16975;SDS011;8604;48.148;-1.786;2024-03-02T15:53:27;3.27;;;0.87;;
16975;SDS011;8604;48.148;-1.786;2024-03-02T15:55:55;3.53;;;1.10;;